Hauptseite
METAR-TAF:

METAR-TAF

Flughäfen :

Flughafen Rarotonga

Rarotonga, Cookinseln

Breite: 21-12S, Länge: 159-49W, Höhe: 7 m

Beobachtung

Neuester Wetterbericht von vor 33 Minuten, um 13:00 UTC
Wind 3 kt aus Ost
Temperatur 26°C
Luftfeuchtigkeit 94%
Luftdruck 1010 hPa
Sichtweite 10 km oder mehr
Leichtregen

METAR: NCRG 231300Z AUTO 09003KT 9999 -RA SCT048/// 26/25 Q1010

Zeit: 03:33 (13:33 UTC)

Prognose

Neuester Wetterbericht von vor 2 Stunden und 31 Minuten, um 11:02 UTC
Gültige Prognose vom 23 um 12 UTC bis 24 um 12 UTC
Wind 6 kt aus Ost
Sichtweite 10 km oder mehr
Aufgelockert bewölkt in der Höhe von 2000 ft
Durchbrochene Bewölkung in der Höhe von 4000 ft
Wahrscheinlichkeit 30% :
Zeitweise
vom 24 um 07 UTC bis 24 um 12 UTC
Sichtweite: 5000 m
Durchbrochene Bewölkung in der Höhe von 1500 ft
Regenschauer

TAF: NCRG 231102Z 2312/2412 10006KT 9999 SCT020 BKN040 PROB30 TEMPO 2407/2412 5000 SHRA BKN015

Wetterbeobachtungen und Prognosen von mehr als 4000 Flughäfen (METAR und TAF Bericht).

Die verfügbaren Stationen werden durch gelbe und rote Markierungen auf der Karte dargestellt.

Führen Sie die Maus auf sie, um den Namen der Station zu sehen.

Darauf klicken, um die Beobachtung von Wetterbeobachtungen und Prognosen zu sehen.

Um die Karte zu ändern : klicken Sie auf den grünen Tasten mit einem schwarzen Kreuz Zum Vergrößern, auf den grünen Button mit einem Gedankenstrich zu verkleinern, oder auf die grünen Pfeile für benachbarte Karten.


METAR-TAF: